Time;durP1;ratioP1;P1;durP2;ratioP2;P2;SDS_P1;SDS_P2;PMS_P1;PMS_P2;Temp;Humidity;BMP_temperature;BMP_pressure;BME280_temperature;BME280_humidity;BME280_pressure;Samples;Min_cycle;Max_cycle;Signal;HPM_P1;HPM_P2
2024/02/21 00:00:57;;;;;;;5.03;3.50;;;;;;;;;;5074442;28;20372;-79
2024/02/21 00:03:23;;;;;;;6.60;3.15;;;;;;;;;;5074613;28;20387;-79
2024/02/21 00:05:49;;;;;;;6.55;3.03;;;;;;;;;;5074188;28;20734;-79
2024/02/21 00:08:15;;;;;;;6.97;3.37;;;;;;;;;;5074117;28;20448;-79
2024/02/21 00:10:41;;;;;;;5.63;2.90;;;;;;;;;;5073931;28;20414;-79
2024/02/21 00:13:07;;;;;;;4.70;3.00;;;;;;;;;;5073941;28;20475;-79
2024/02/21 00:15:33;;;;;;;4.00;2.80;;;;;;;;;;5074253;28;20403;-79
2024/02/21 00:17:59;;;;;;;6.30;2.88;;;;;;;;;;5074797;28;20405;-79
2024/02/21 00:20:25;;;;;;;6.47;3.10;;;;;;;;;;5073632;28;20380;-79
2024/02/21 00:22:52;;;;;;;4.90;2.80;;;;;;;;;;5074128;28;20375;-79
2024/02/21 00:25:18;;;;;;;5.25;2.60;;;;;;;;;;5074208;28;20466;-79
2024/02/21 00:27:44;;;;;;;4.87;2.80;;;;;;;;;;5074321;28;20457;-79
2024/02/21 00:30:10;;;;;;;4.35;2.67;;;;;;;;;;5074168;28;20411;-79
2024/02/21 00:32:38;;;;;;;15.10;6.32;;;;;;;;;;5074015;28;20443;-79
2024/02/21 00:35:04;;;;;;;4.95;3.22;;;;;;;;;;5074161;28;20407;-79
2024/02/21 00:37:32;;;;;;;4.43;2.75;;;;;;;;;;5074133;28;20478;-79
2024/02/21 00:39:58;;;;;;;5.30;3.10;;;;;;;;;;5073870;28;20426;-79
2024/02/21 00:42:24;;;;;;;4.57;2.97;;;;;;;;;;5073887;28;20846;-79
2024/02/21 00:44:50;;;;;;;17.15;8.57;;;;;;;;;;5072521;28;20467;-80
2024/02/21 00:47:15;;;;;;;22.70;11.25;;;;;;;;;;5073545;28;20387;-79
2024/02/21 00:49:41;;;;;;;14.30;6.73;;;;;;;;;;5073619;28;20414;-79
2024/02/21 00:52:07;;;;;;;8.73;5.50;;;;;;;;;;5073830;28;20404;-79
2024/02/21 00:54:33;;;;;;;5.65;3.42;;;;;;;;;;5073764;28;20548;-79
2024/02/21 00:56:59;;;;;;;6.30;3.28;;;;;;;;;;5074030;28;20404;-79
2024/02/21 00:59:25;;;;;;;3.75;2.65;;;;;;;;;;5074117;28;20549;-79
2024/02/21 01:01:51;;;;;;;4.20;2.63;;;;;;;;;;5073701;28;20371;-79
2024/02/21 01:04:17;;;;;;;5.45;2.83;;;;;;;;;;5073933;28;20819;-79
2024/02/21 01:06:44;;;;;;;4.65;2.40;;;;;;;;;;5074295;28;20368;-79
2024/02/21 01:09:10;;;;;;;5.20;2.78;;;;;;;;;;5073648;28;20411;-79
2024/02/21 01:11:36;;;;;;;3.40;2.60;;;;;;;;;;5073504;28;20451;-79
2024/02/21 01:14:02;;;;;;;3.72;2.58;;;;;;;;;;5073973;28;20378;-79
2024/02/21 01:16:28;;;;;;;4.30;2.45;;;;;;;;;;5073548;28;20390;-80
2024/02/21 01:18:54;;;;;;;3.47;2.38;;;;;;;;;;5073427;28;20616;-79
2024/02/21 01:21:20;;;;;;;5.13;2.58;;;;;;;;;;5073186;28;20376;-79
2024/02/21 01:23:46;;;;;;;3.97;2.60;;;;;;;;;;5072577;28;20928;-79
2024/02/21 01:26:14;;;;;;;4.07;2.40;;;;;;;;;;5073260;28;20475;-79
2024/02/21 01:28:40;;;;;;;4.55;2.45;;;;;;;;;;5073298;28;20414;-79
2024/02/21 01:31:07;;;;;;;4.53;2.80;;;;;;;;;;5073073;28;20419;-79
2024/02/21 01:33:34;;;;;;;4.28;2.33;;;;;;;;;;5075453;28;20380;-80
2024/02/21 01:36:04;;;;;;;5.78;2.67;;;;;;;;;;5077263;28;20824;-79
2024/02/21 01:38:31;;;;;;;3.70;2.60;;;;;;;;;;5076283;28;20371;-79
2024/02/21 01:40:57;;;;;;;4.75;2.60;;;;;;;;;;5063649;28;20382;-79
2024/02/21 01:43:24;;;;;;;3.63;2.83;;;;;;;;;;5056848;28;20859;-79
2024/02/21 01:45:51;;;;;;;4.03;2.40;;;;;;;;;;5055482;28;20382;-79
2024/02/21 01:48:18;;;;;;;3.53;2.40;;;;;;;;;;5056628;28;20397;-79
2024/02/21 01:50:45;;;;;;;4.95;2.80;;;;;;;;;;5056429;28;20441;-79
2024/02/21 01:53:17;;;;;;;5.07;2.20;;;;;;;;;;5056586;28;20428;-79
2024/02/21 01:55:43;;;;;;;5.20;2.28;;;;;;;;;;5056814;28;20393;-79
2024/02/21 01:58:09;;;;;;;5.95;2.53;;;;;;;;;;5056406;28;20380;-79
2024/02/21 02:00:35;;;;;;;4.13;2.57;;;;;;;;;;5056313;28;20389;-79
2024/02/21 02:03:01;;;;;;;3.90;2.40;;;;;;;;;;5055893;28;20416;-79
2024/02/21 02:05:28;;;;;;;4.28;2.50;;;;;;;;;;5055608;28;20735;-79
2024/02/21 02:07:54;;;;;;;4.82;2.55;;;;;;;;;;5056367;28;20384;-79
2024/02/21 02:10:20;;;;;;;5.22;3.38;;;;;;;;;;5056130;28;20405;-79
2024/02/21 02:12:46;;;;;;;3.72;2.60;;;;;;;;;;5056441;28;20389;-79
2024/02/21 02:15:12;;;;;;;4.50;2.50;;;;;;;;;;5065662;28;20379;-79
2024/02/21 02:17:38;;;;;;;3.95;2.22;;;;;;;;;;5075082;28;20881;-79
2024/02/21 02:20:04;;;;;;;4.80;2.47;;;;;;;;;;5076129;28;20470;-79
2024/02/21 02:22:32;;;;;;;6.05;3.22;;;;;;;;;;5076594;28;20742;-79
2024/02/21 02:24:58;;;;;;;4.97;3.00;;;;;;;;;;5075899;28;20380;-79
2024/02/21 02:27:24;;;;;;;6.20;3.47;;;;;;;;;;5075950;28;20723;-79
2024/02/21 02:29:51;;;;;;;5.50;2.97;;;;;;;;;;5075754;28;20418;-79
2024/02/21 02:32:17;;;;;;;5.28;2.90;;;;;;;;;;5076113;28;20379;-79
2024/02/21 02:34:43;;;;;;;4.88;2.35;;;;;;;;;;5076221;28;20388;-79
2024/02/21 02:37:09;;;;;;;3.73;2.57;;;;;;;;;;5065169;28;20443;-79
2024/02/21 02:39:35;;;;;;;4.72;2.63;;;;;;;;;;5055477;28;20911;-79
2024/02/21 02:42:02;;;;;;;5.30;2.53;;;;;;;;;;5054817;28;20478;-79
2024/02/21 02:44:28;;;;;;;4.72;2.30;;;;;;;;;;5055145;28;20457;-79
2024/02/21 02:46:54;;;;;;;4.85;2.50;;;;;;;;;;5055266;28;21005;-79
2024/02/21 02:49:20;;;;;;;4.23;2.40;;;;;;;;;;5055097;28;20385;-79
2024/02/21 02:51:46;;;;;;;5.75;2.67;;;;;;;;;;5055675;28;20385;-79
2024/02/21 02:54:13;;;;;;;4.38;2.40;;;;;;;;;;5055225;28;20386;-79
2024/02/21 02:56:39;;;;;;;5.70;2.72;;;;;;;;;;5055207;28;20369;-79
2024/02/21 02:59:05;;;;;;;6.65;2.65;;;;;;;;;;5055148;28;20778;-79
2024/02/21 03:01:34;;;;;;;3.97;2.38;;;;;;;;;;5055158;28;20435;-79
2024/02/21 03:04:00;;;;;;;4.57;2.50;;;;;;;;;;5055278;28;20843;-79
2024/02/21 03:06:26;;;;;;;3.88;2.38;;;;;;;;;;5055217;28;20456;-79
2024/02/21 03:08:54;;;;;;;5.35;2.40;;;;;;;;;;5054987;28;20874;-79
2024/02/21 03:11:21;;;;;;;5.68;2.40;;;;;;;;;;5054876;28;20412;-79
2024/02/21 03:13:47;;;;;;;4.03;2.40;;;;;;;;;;5055358;28;20384;-79
2024/02/21 03:16:13;;;;;;;3.17;2.22;;;;;;;;;;5054654;28;20868;-79
2024/02/21 03:18:39;;;;;;;4.18;2.22;;;;;;;;;;5054473;28;20516;-80
2024/02/21 03:21:05;;;;;;;3.90;2.38;;;;;;;;;;5054601;28;20874;-79
2024/02/21 03:23:31;;;;;;;5.18;2.45;;;;;;;;;;5054376;28;20389;-79
2024/02/21 03:25:57;;;;;;;3.83;2.40;;;;;;;;;;5070081;28;20761;-79
2024/02/21 03:28:23;;;;;;;4.07;2.10;;;;;;;;;;5074704;28;20375;-79
2024/02/21 03:30:49;;;;;;;4.35;2.30;;;;;;;;;;5074645;28;20465;-79
2024/02/21 03:33:15;;;;;;;4.77;2.57;;;;;;;;;;5074771;28;20458;-79
2024/02/21 03:35:41;;;;;;;4.00;2.15;;;;;;;;;;5074758;28;20384;-79
2024/02/21 03:38:07;;;;;;;4.65;2.25;;;;;;;;;;5074769;28;20396;-79
2024/02/21 03:40:33;;;;;;;4.00;2.27;;;;;;;;;;5074783;28;21084;-79
2024/02/21 03:42:59;;;;;;;5.30;2.85;;;;;;;;;;5075166;28;20388;-79
2024/02/21 03:45:25;;;;;;;4.18;2.30;;;;;;;;;;5074627;28;20384;-79
2024/02/21 03:47:51;;;;;;;4.57;2.72;;;;;;;;;;5072819;28;20392;-79
2024/02/21 03:50:17;;;;;;;4.25;2.30;;;;;;;;;;5055459;28;20865;-79
2024/02/21 03:52:43;;;;;;;3.97;2.33;;;;;;;;;;5054926;28;20376;-79
2024/02/21 03:55:09;;;;;;;5.85;2.60;;;;;;;;;;5053942;28;20864;-80
2024/02/21 03:57:35;;;;;;;5.47;2.40;;;;;;;;;;5054222;28;20377;-79
2024/02/21 04:00:01;;;;;;;3.13;2.00;;;;;;;;;;5054548;28;20487;-79
2024/02/21 04:02:27;;;;;;;3.47;2.03;;;;;;;;;;5052738;28;20519;-79
2024/02/21 04:04:53;;;;;;;3.53;2.20;;;;;;;;;;5053775;28;20851;-79
2024/02/21 04:07:19;;;;;;;3.67;2.08;;;;;;;;;;5053812;28;20382;-79
2024/02/21 04:09:45;;;;;;;4.47;2.53;;;;;;;;;;5053858;28;20439;-79
2024/02/21 04:12:11;;;;;;;4.55;2.53;;;;;;;;;;5058368;28;20869;-79
2024/02/21 04:14:37;;;;;;;3.60;2.50;;;;;;;;;;5074611;28;20372;-79
2024/02/21 04:17:03;;;;;;;3.33;2.30;;;;;;;;;;5074582;28;20374;-79
2024/02/21 04:19:30;;;;;;;3.45;2.33;;;;;;;;;;5073843;28;20383;-79
2024/02/21 04:21:56;;;;;;;4.32;2.30;;;;;;;;;;5074295;28;20379;-79
2024/02/21 04:24:22;;;;;;;3.55;2.17;;;;;;;;;;5073947;28;20416;-79
2024/02/21 04:26:49;;;;;;;4.03;2.53;;;;;;;;;;5072850;28;20408;-79
2024/02/21 04:29:15;;;;;;;4.18;2.30;;;;;;;;;;5073569;28;20463;-79
2024/02/21 04:31:41;;;;;;;3.88;2.50;;;;;;;;;;5073621;28;20516;-79
2024/02/21 04:34:07;;;;;;;3.50;2.17;;;;;;;;;;5073801;28;20379;-79
2024/02/21 04:36:33;;;;;;;4.40;2.33;;;;;;;;;;5073844;28;20474;-82
2024/02/21 04:38:59;;;;;;;3.90;2.47;;;;;;;;;;5074020;28;20422;-79
2024/02/21 04:41:25;;;;;;;4.20;2.60;;;;;;;;;;5073587;28;20721;-79
2024/02/21 04:43:51;;;;;;;6.47;2.55;;;;;;;;;;5073876;28;20414;-79
2024/02/21 04:46:17;;;;;;;4.43;2.60;;;;;;;;;;5073601;28;20849;-79
2024/02/21 04:48:43;;;;;;;4.20;2.50;;;;;;;;;;5073014;28;20387;-79
2024/02/21 04:51:09;;;;;;;4.32;2.45;;;;;;;;;;5073451;28;20411;-79
2024/02/21 04:53:35;;;;;;;5.20;2.65;;;;;;;;;;5073842;28;20861;-80
2024/02/21 04:56:01;;;;;;;3.65;2.30;;;;;;;;;;5073694;28;20376;-80
2024/02/21 04:58:27;;;;;;;4.27;2.60;;;;;;;;;;5073932;28;20466;-79
2024/02/21 05:00:54;;;;;;;3.30;2.17;;;;;;;;;;5073655;28;20411;-79
2024/02/21 05:03:20;;;;;;;6.15;2.83;;;;;;;;;;5073683;28;20718;-79
2024/02/21 05:05:46;;;;;;;5.00;2.30;;;;;;;;;;5073080;28;20423;-79
2024/02/21 05:08:12;;;;;;;5.60;2.57;;;;;;;;;;5076277;28;20426;-79
2024/02/21 05:10:39;;;;;;;5.95;2.50;;;;;;;;;;5077206;28;20480;-79
2024/02/21 05:13:05;;;;;;;5.53;2.63;;;;;;;;;;5077063;28;20387;-79
2024/02/21 05:15:31;;;;;;;3.53;2.25;;;;;;;;;;5077704;28;20901;-79
2024/02/21 05:17:57;;;;;;;4.38;2.50;;;;;;;;;;5077113;28;20376;-79
2024/02/21 05:20:23;;;;;;;4.88;2.33;;;;;;;;;;5077290;28;20384;-79
2024/02/21 05:22:49;;;;;;;5.30;2.35;;;;;;;;;;5077613;28;20388;-79
2024/02/21 05:25:15;;;;;;;5.97;2.33;;;;;;;;;;5077406;28;20392;-80
2024/02/21 05:27:41;;;;;;;3.78;2.13;;;;;;;;;;5077196;28;20391;-80
2024/02/21 05:30:07;;;;;;;4.57;2.45;;;;;;;;;;5077498;28;20426;-80
2024/02/21 05:32:33;;;;;;;4.00;2.40;;;;;;;;;;5077733;28;20834;-79
2024/02/21 05:34:59;;;;;;;5.00;2.67;;;;;;;;;;5077437;28;20383;-79
2024/02/21 05:37:25;;;;;;;4.47;2.42;;;;;;;;;;5077542;28;20466;-80
2024/02/21 05:39:51;;;;;;;5.90;2.85;;;;;;;;;;5078772;28;20383;-80
2024/02/21 05:42:17;;;;;;;4.20;2.40;;;;;;;;;;5077639;28;20380;-80
2024/02/21 05:44:43;;;;;;;3.58;2.25;;;;;;;;;;5077680;28;20730;-80
2024/02/21 05:47:10;;;;;;;6.38;2.58;;;;;;;;;;5077739;28;20426;-80
2024/02/21 05:49:36;;;;;;;5.65;2.50;;;;;;;;;;5077345;28;20379;-80
2024/02/21 05:52:02;;;;;;;3.58;2.35;;;;;;;;;;5077899;28;20830;-80
2024/02/21 05:54:28;;;;;;;6.10;2.33;;;;;;;;;;5078013;28;20382;-80
2024/02/21 05:56:54;;;;;;;5.13;2.60;;;;;;;;;;5076999;28;20446;-80
2024/02/21 05:59:20;;;;;;;4.55;3.05;;;;;;;;;;5060570;28;20417;-80
2024/02/21 06:01:56;;;;;;;5.13;2.97;;;;;;;;;;5056899;28;20394;-80
2024/02/21 06:04:22;;;;;;;5.95;2.70;;;;;;;;;;5057905;28;20369;-80
2024/02/21 06:06:48;;;;;;;5.50;2.70;;;;;;;;;;5058115;28;20412;-80
2024/02/21 06:09:13;;;;;;;3.88;2.83;;;;;;;;;;5057529;28;20394;-80
2024/02/21 06:11:39;;;;;;;4.72;2.92;;;;;;;;;;5056205;28;20412;-81
2024/02/21 06:14:05;;;;;;;4.70;2.97;;;;;;;;;;5058429;28;20385;-80
2024/02/21 06:16:31;;;;;;;5.32;2.70;;;;;;;;;;5057822;28;20381;-80
2024/02/21 06:18:57;;;;;;;5.40;2.92;;;;;;;;;;5057236;28;20389;-81
2024/02/21 06:21:23;;;;;;;5.33;2.53;;;;;;;;;;5068436;28;20439;-80
2024/02/21 06:23:49;;;;;;;5.85;2.67;;;;;;;;;;5078179;28;20380;-80
2024/02/21 06:26:15;;;;;;;3.10;2.63;;;;;;;;;;5077967;28;20391;-80
2024/02/21 06:28:42;;;;;;;5.30;2.70;;;;;;;;;;5076933;28;20391;-80
2024/02/21 06:31:08;;;;;;;4.93;2.90;;;;;;;;;;5077719;28;20490;-80
2024/02/21 06:33:34;;;;;;;4.32;2.90;;;;;;;;;;5077350;28;20402;-80
2024/02/21 06:36:00;;;;;;;5.40;2.92;;;;;;;;;;5077341;28;20376;-80
2024/02/21 06:38:26;;;;;;;5.53;3.33;;;;;;;;;;5076798;28;20387;-79
2024/02/21 06:40:54;;;;;;;5.57;3.25;;;;;;;;;;5077504;28;20849;-79
2024/02/21 06:43:20;;;;;;;6.38;3.20;;;;;;;;;;5077176;28;20471;-80
2024/02/21 06:45:54;;;;;;;4.72;3.20;;;;;;;;;;5076380;28;20885;-80
2024/02/21 06:48:20;;;;;;;6.40;3.67;;;;;;;;;;5076779;28;20383;-80
2024/02/21 06:50:46;;;;;;;4.77;3.40;;;;;;;;;;5076794;28;20407;-80
2024/02/21 06:53:12;;;;;;;4.97;3.63;;;;;;;;;;5077691;28;20749;-80
2024/02/21 06:55:38;;;;;;;4.83;3.20;;;;;;;;;;5076641;28;20435;-80
2024/02/21 06:58:04;;;;;;;4.72;3.30;;;;;;;;;;5076891;28;20853;-80
2024/02/21 07:00:30;;;;;;;4.93;3.53;;;;;;;;;;5076959;28;20371;-80
2024/02/21 07:02:56;;;;;;;5.97;3.70;;;;;;;;;;5076635;28;20879;-80
2024/02/21 07:05:22;;;;;;;6.22;4.40;;;;;;;;;;5076299;28;20382;-80
2024/02/21 07:07:48;;;;;;;6.38;3.38;;;;;;;;;;5076602;28;20463;-80
2024/02/21 07:10:14;;;;;;;4.40;3.20;;;;;;;;;;5076708;28;20428;-80
2024/02/21 07:12:43;;;;;;;4.20;3.30;;;;;;;;;;5077188;28;20381;-80
2024/02/21 07:15:09;;;;;;;9.27;3.90;;;;;;;;;;5076221;28;20379;-80
2024/02/21 07:17:35;;;;;;;10.45;7.07;;;;;;;;;;5076274;28;20383;-80
2024/02/21 07:20:01;;;;;;;7.30;3.53;;;;;;;;;;5075977;28;20388;-80
2024/02/21 07:22:27;;;;;;;7.03;4.45;;;;;;;;;;5076138;28;20384;-80
2024/02/21 07:24:53;;;;;;;4.53;3.20;;;;;;;;;;5075686;28;20384;-80
2024/02/21 07:27:19;;;;;;;3.65;3.13;;;;;;;;;;5074868;28;20518;-80
2024/02/21 07:29:47;;;;;;;4.37;3.30;;;;;;;;;;5075018;28;20411;-80
2024/02/21 07:32:13;;;;;;;4.63;2.97;;;;;;;;;;5074705;28;20391;-80
2024/02/21 07:34:39;;;;;;;6.00;3.50;;;;;;;;;;5075712;28;20383;-80
2024/02/21 07:37:05;;;;;;;5.30;3.65;;;;;;;;;;5075503;28;20379;-80
2024/02/21 07:39:31;;;;;;;4.22;3.58;;;;;;;;;;5076288;28;20431;-80
2024/02/21 07:41:57;;;;;;;5.80;3.50;;;;;;;;;;5075927;28;20425;-80
2024/02/21 07:44:23;;;;;;;5.68;3.10;;;;;;;;;;5075934;28;20425;-80
2024/02/21 07:46:49;;;;;;;5.40;3.53;;;;;;;;;;5075543;28;20375;-81
2024/02/21 07:49:15;;;;;;;4.93;3.08;;;;;;;;;;5075125;28;20386;-81
2024/02/21 07:51:42;;;;;;;8.00;6.28;;;;;;;;;;5075179;28;20935;-80
2024/02/21 07:54:08;;;;;;;29.73;19.40;;;;;;;;;;5062169;28;20378;-80
2024/02/21 07:56:34;;;;;;;8.50;4.97;;;;;;;;;;5058136;28;20388;-80
2024/02/21 07:59:00;;;;;;;6.63;4.20;;;;;;;;;;5059649;28;20460;-80
2024/02/21 08:01:25;;;;;;;5.82;4.00;;;;;;;;;;5057898;28;20851;-80
2024/02/21 08:03:52;;;;;;;6.78;3.92;;;;;;;;;;5055710;28;20397;-80
2024/02/21 08:06:17;;;;;;;5.70;4.10;;;;;;;;;;5054425;28;20836;-80
2024/02/21 08:08:43;;;;;;;9.40;5.68;;;;;;;;;;5054854;28;20378;-80
2024/02/21 08:11:09;;;;;;;5.70;4.07;;;;;;;;;;5055338;28;20827;-81
2024/02/21 08:13:35;;;;;;;8.02;4.80;;;;;;;;;;5054541;28;20427;-81
2024/02/21 08:16:03;;;;;;;8.63;4.38;;;;;;;;;;5055189;28;20374;-81
2024/02/21 08:18:29;;;;;;;8.60;4.78;;;;;;;;;;5058302;28;20375;-81
2024/02/21 08:20:55;;;;;;;7.85;4.60;;;;;;;;;;5074867;28;20380;-81
2024/02/21 08:23:24;;;;;;;6.70;5.00;;;;;;;;;;5075116;28;20437;-81
2024/02/21 08:25:50;;;;;;;8.00;5.20;;;;;;;;;;5073515;28;20453;-80
2024/02/21 08:28:16;;;;;;;7.43;5.32;;;;;;;;;;5073965;28;20383;-80
2024/02/21 08:30:47;;;;;;;6.78;5.47;;;;;;;;;;5074607;28;20416;-80
2024/02/21 08:33:14;;;;;;;7.47;5.13;;;;;;;;;;5075647;28;20399;-80
2024/02/21 08:35:40;;;;;;;8.32;5.53;;;;;;;;;;5075806;28;20892;-81
2024/02/21 08:38:06;;;;;;;7.32;5.60;;;;;;;;;;5075330;28;20384;-81
2024/02/21 08:40:34;;;;;;;7.90;5.27;;;;;;;;;;5075217;28;20813;-80
2024/02/21 08:43:00;;;;;;;7.50;6.03;;;;;;;;;;5075187;28;20436;-81
2024/02/21 08:45:26;;;;;;;7.38;5.50;;;;;;;;;;5075063;28;20430;-81
2024/02/21 08:47:52;;;;;;;7.45;4.85;;;;;;;;;;5074905;28;20402;-81
2024/02/21 08:50:18;;;;;;;7.45;4.93;;;;;;;;;;5074147;28;20496;-81
2024/02/21 08:52:44;;;;;;;6.32;4.40;;;;;;;;;;5074257;28;20378;-81
2024/02/21 08:55:10;;;;;;;7.20;4.70;;;;;;;;;;5073683;28;20455;-81
2024/02/21 08:57:36;;;;;;;7.07;4.80;;;;;;;;;;5074821;28;20371;-81
2024/02/21 09:00:09;;;;;;;6.80;5.15;;;;;;;;;;5074353;28;20379;-81
2024/02/21 09:02:44;;;;;;;6.72;4.70;;;;;;;;;;5074326;28;20386;-80
2024/02/21 09:05:10;;;;;;;5.85;5.13;;;;;;;;;;5073773;28;20379;-80
2024/02/21 09:07:36;;;;;;;7.33;4.70;;;;;;;;;;5074412;28;20446;-81
2024/02/21 09:10:02;;;;;;;4.95;4.45;;;;;;;;;;5074331;28;20407;-81
2024/02/21 09:12:29;;;;;;;6.53;4.43;;;;;;;;;;5073574;28;20372;-81
2024/02/21 09:14:55;;;;;;;4.70;3.75;;;;;;;;;;5073154;28;20386;-81
2024/02/21 09:17:21;;;;;;;5.72;3.90;;;;;;;;;;5072696;28;20391;-81
2024/02/21 09:19:47;;;;;;;6.30;3.80;;;;;;;;;;5071611;28;20387;-81
2024/02/21 09:22:14;;;;;;;4.65;3.38;;;;;;;;;;5073089;28;20396;-81
2024/02/21 09:24:40;;;;;;;4.35;3.90;;;;;;;;;;5071995;28;20958;-81
2024/02/21 09:27:06;;;;;;;5.03;3.95;;;;;;;;;;5072610;28;20388;-81
2024/02/21 09:29:36;;;;;;;4.28;3.65;;;;;;;;;;5071885;28;20422;-81
2024/02/21 09:32:02;;;;;;;5.18;3.80;;;;;;;;;;5071453;28;20407;-82
2024/02/21 09:34:28;;;;;;;4.63;3.70;;;;;;;;;;5072806;28;20372;-82
2024/02/21 09:36:54;;;;;;;3.70;3.15;;;;;;;;;;5075056;28;20436;-81
2024/02/21 09:39:20;;;;;;;5.80;3.40;;;;;;;;;;5074417;28;20402;-81
2024/02/21 09:41:59;;;;;;;5.70;3.42;;;;;;;;;;5073987;28;20387;-82
2024/02/21 09:44:31;;;;;;;3.80;3.45;;;;;;;;;;5073769;28;20388;-82
2024/02/21 09:47:07;;;;;;;8.45;3.47;;;;;;;;;;5074544;28;20380;-81
2024/02/21 09:49:34;;;;;;;2.70;2.50;;;;;;;;;;5074271;28;20386;-81
2024/02/21 09:52:03;;;;;;;3.00;2.70;;;;;;;;;;5075075;28;20882;-81
2024/02/21 09:54:32;;;;;;;4.32;3.15;;;;;;;;;;5076459;28;20390;-81
2024/02/21 09:56:58;;;;;;;4.00;2.45;;;;;;;;;;5059605;28;20386;-81
2024/02/21 09:59:25;;;;;;;2.85;2.50;;;;;;;;;;5057219;28;20449;-81
2024/02/21 10:01:51;;;;;;;3.80;2.83;;;;;;;;;;5056813;28;20924;-81
2024/02/21 10:04:18;;;;;;;2.40;2.17;;;;;;;;;;5056600;28;20743;-81
2024/02/21 10:06:44;;;;;;;4.50;3.03;;;;;;;;;;5056718;28;20416;-81
2024/02/21 10:09:20;;;;;;;2.67;2.15;;;;;;;;;;5057015;28;20393;-81
2024/02/21 10:11:46;;;;;;;3.00;2.25;;;;;;;;;;5071433;28;20481;-81
2024/02/21 10:14:12;;;;;;;2.75;2.10;;;;;;;;;;5076957;28;20376;-81
2024/02/21 10:16:38;;;;;;;3.30;2.30;;;;;;;;;;5077159;28;20372;-81
2024/02/21 10:19:05;;;;;;;3.65;2.08;;;;;;;;;;5076989;28;20770;-81
2024/02/21 10:21:31;;;;;;;2.88;2.67;;;;;;;;;;5077627;28;20376;-80
2024/02/21 10:23:57;;;;;;;4.28;2.85;;;;;;;;;;5087133;28;20743;-80
2024/02/21 10:26:23;;;;;;;3.83;2.67;;;;;;;;;;5081358;28;20526;-80
2024/02/21 10:28:51;;;;;;;3.47;2.50;;;;;;;;;;5079962;28;20431;-80
2024/02/21 10:31:26;;;;;;;3.50;2.40;;;;;;;;;;5081001;28;20418;-80
2024/02/21 10:33:59;;;;;;;3.28;2.35;;;;;;;;;;5082107;28;20378;-80
2024/02/21 10:36:26;;;;;;;3.50;2.17;;;;;;;;;;5092005;28;20378;-80
2024/02/21 10:38:53;;;;;;;4.40;2.30;;;;;;;;;;5080159;28;20397;-80
2024/02/21 10:41:20;;;;;;;2.70;2.22;;;;;;;;;;5097175;28;20709;-80
2024/02/21 10:43:49;;;;;;;2.63;2.10;;;;;;;;;;5086628;28;20814;-80
2024/02/21 10:46:19;;;;;;;3.50;2.33;;;;;;;;;;5076771;28;20453;-80
2024/02/21 10:48:45;;;;;;;3.35;2.25;;;;;;;;;;5070380;28;20398;-80
2024/02/21 10:51:11;;;;;;;2.78;2.25;;;;;;;;;;5067112;28;20397;-80
2024/02/21 10:53:52;;;;;;;3.38;2.40;;;;;;;;;;5067801;28;20772;-80
2024/02/21 10:56:36;;;;;;;2.80;2.20;;;;;;;;;;5077663;28;20411;-80
2024/02/21 10:59:03;;;;;;;3.50;2.42;;;;;;;;;;5076619;28;20861;-80
2024/02/21 11:01:31;;;;;;;2.72;2.20;;;;;;;;;;5058178;28;20390;-80
2024/02/21 11:03:58;;;;;;;3.50;2.42;;;;;;;;;;5054544;28;20427;-81
2024/02/21 11:06:25;;;;;;;2.97;2.17;;;;;;;;;;5055462;28;20392;-81
2024/02/21 11:09:08;;;;;;;3.00;2.20;;;;;;;;;;5054993;28;20392;-81
2024/02/21 11:11:41;;;;;;;3.53;2.55;;;;;;;;;;5055761;28;20977;-81
2024/02/21 11:14:07;;;;;;;3.63;2.70;;;;;;;;;;5055739;28;20724;-81
2024/02/21 11:16:38;;;;;;;3.50;2.20;;;;;;;;;;5055998;28;20380;-81
2024/02/21 11:19:24;;;;;;;2.53;2.00;;;;;;;;;;5055585;28;20384;-80
2024/02/21 11:21:51;;;;;;;2.78;1.90;;;;;;;;;;5055194;28;20436;-81
2024/02/21 11:24:28;;;;;;;2.00;1.80;;;;;;;;;;5055144;28;20991;-80
2024/02/21 11:26:55;;;;;;;1.93;1.73;;;;;;;;;;5071863;28;20502;-81
2024/02/21 11:29:28;;;;;;;2.00;1.80;;;;;;;;;;5074546;28;20408;-81
2024/02/21 11:31:54;;;;;;;3.05;1.73;;;;;;;;;;5074909;28;20404;-81
2024/02/21 11:34:20;;;;;;;2.53;1.83;;;;;;;;;;5074815;28;20439;-81
2024/02/21 11:36:50;;;;;;;6.63;1.92;;;;;;;;;;5074703;28;20448;-81
2024/02/21 11:39:24;;;;;;;3.03;2.25;;;;;;;;;;5075116;28;20784;-81
2024/02/21 11:42:03;;;;;;;2.60;2.15;;;;;;;;;;5075174;28;20376;-81
2024/02/21 11:44:29;;;;;;;2.80;1.80;;;;;;;;;;5074629;28;20466;-81
2024/02/21 11:46:55;;;;;;;2.33;1.90;;;;;;;;;;5073122;28;20383;-81
2024/02/21 11:49:21;;;;;;;2.42;1.90;;;;;;;;;;5074573;28;20375;-81
2024/02/21 11:51:48;;;;;;;3.45;2.08;;;;;;;;;;5073449;28;20487;-81
2024/02/21 11:54:17;;;;;;;2.65;2.17;;;;;;;;;;5070848;28;20375;-81
2024/02/21 11:56:43;;;;;;;2.45;1.90;;;;;;;;;;5074861;28;20433;-81
2024/02/21 11:59:09;;;;;;;2.20;2.00;;;;;;;;;;5074115;28;20364;-81
2024/02/21 12:01:35;;;;;;;3.58;2.30;;;;;;;;;;5074706;28;20420;-81
2024/02/21 12:04:01;;;;;;;2.42;2.10;;;;;;;;;;5074944;28;20418;-81
2024/02/21 12:06:27;;;;;;;3.20;2.10;;;;;;;;;;5074192;28;20376;-81
2024/02/21 12:08:58;;;;;;;5.20;2.35;;;;;;;;;;5074075;28;20436;-81
2024/02/21 12:11:24;;;;;;;2.60;2.10;;;;;;;;;;5072768;28;20419;-81
2024/02/21 12:14:00;;;;;;;4.05;1.80;;;;;;;;;;5073502;28;20375;-81
2024/02/21 12:16:29;;;;;;;2.25;1.83;;;;;;;;;;5072678;28;20437;-81
2024/02/21 12:18:55;;;;;;;2.53;2.10;;;;;;;;;;5076758;28;20395;-81
2024/02/21 12:21:24;;;;;;;2.27;1.70;;;;;;;;;;5074905;28;21158;-81
2024/02/21 12:23:50;;;;;;;2.50;2.28;;;;;;;;;;5077622;28;20406;-82
2024/02/21 12:26:16;;;;;;;2.83;1.80;;;;;;;;;;5076700;28;21113;-82
2024/02/21 12:28:42;;;;;;;2.10;1.90;;;;;;;;;;5075148;28;20400;-82
2024/02/21 12:31:08;;;;;;;2.30;1.90;;;;;;;;;;5075750;28;20521;-81
2024/02/21 12:33:34;;;;;;;2.92;2.20;;;;;;;;;;5075879;28;20381;-81
2024/02/21 12:36:00;;;;;;;3.17;2.47;;;;;;;;;;5075139;28;20413;-81
2024/02/21 12:38:26;;;;;;;3.73;2.03;;;;;;;;;;5075270;28;20471;-81
2024/02/21 12:40:53;;;;;;;4.95;2.70;;;;;;;;;;5076768;28;20390;-81
2024/02/21 12:43:19;;;;;;;2.03;1.90;;;;;;;;;;5075135;28;20471;-81
2024/02/21 12:45:45;;;;;;;3.55;2.53;;;;;;;;;;5077642;28;20380;-81
2024/02/21 12:48:13;;;;;;;4.03;2.13;;;;;;;;;;5076864;28;20832;-81
2024/02/21 12:50:39;;;;;;;3.15;2.13;;;;;;;;;;5076224;28;20904;-81
2024/02/21 12:53:05;;;;;;;3.93;1.90;;;;;;;;;;5075173;28;20376;-81
2024/02/21 12:55:31;;;;;;;2.53;2.20;;;;;;;;;;5075917;28;20376;-81
2024/02/21 12:57:57;;;;;;;2.72;2.00;;;;;;;;;;5075786;28;20873;-81
2024/02/21 13:00:26;;;;;;;2.30;1.90;;;;;;;;;;5070039;28;20501;-81
2024/02/21 13:02:52;;;;;;;2.65;2.10;;;;;;;;;;5063883;28;20378;-81
2024/02/21 13:05:18;;;;;;;2.70;1.85;;;;;;;;;;5064804;28;20383;-81
2024/02/21 13:07:44;;;;;;;2.95;1.90;;;;;;;;;;5065452;28;20390;-80
2024/02/21 13:10:10;;;;;;;3.22;2.00;;;;;;;;;;5053696;28;20455;-79
2024/02/21 13:12:36;;;;;;;3.17;2.20;;;;;;;;;;5054459;28;20391;-80
2024/02/21 13:15:02;;;;;;;3.67;2.10;;;;;;;;;;5055032;28;20373;-80
2024/02/21 13:17:31;;;;;;;2.20;2.00;;;;;;;;;;5056033;28;20416;-80
2024/02/21 13:19:57;;;;;;;2.83;2.13;;;;;;;;;;5067791;28;20400;-80
2024/02/21 13:22:25;;;;;;;3.00;2.20;;;;;;;;;;5076297;28;20859;-80
2024/02/21 13:24:52;;;;;;;2.78;2.20;;;;;;;;;;5070073;28;20416;-81
2024/02/21 13:27:18;;;;;;;3.40;1.90;;;;;;;;;;5055642;28;20388;-81
2024/02/21 13:29:45;;;;;;;1.80;1.60;;;;;;;;;;5057798;28;20413;-83
2024/02/21 13:32:11;;;;;;;2.00;1.80;;;;;;;;;;5059987;28;20411;-82
2024/02/21 13:34:37;;;;;;;3.03;2.28;;;;;;;;;;5059895;28;20416;-82
2024/02/21 13:37:04;;;;;;;1.98;1.80;;;;;;;;;;5059325;28;20386;-82
2024/02/21 13:39:31;;;;;;;3.08;1.83;;;;;;;;;;5058843;28;20377;-81
2024/02/21 13:41:58;;;;;;;3.67;1.90;;;;;;;;;;5065234;28;20398;-81
2024/02/21 13:44:25;;;;;;;2.80;1.80;;;;;;;;;;5067908;28;20384;-80
2024/02/21 13:46:51;;;;;;;2.25;1.75;;;;;;;;;;5078368;28;20379;-80
2024/02/21 13:49:17;;;;;;;3.10;2.00;;;;;;;;;;5077520;28;20380;-80
2024/02/21 13:51:44;;;;;;;2.38;1.75;;;;;;;;;;5077232;28;20411;-80
2024/02/21 13:54:11;;;;;;;3.15;1.85;;;;;;;;;;5076953;28;20444;-80
2024/02/21 13:56:37;;;;;;;2.10;1.90;;;;;;;;;;5077571;28;20376;-81
2024/02/21 13:59:04;;;;;;;2.65;1.70;;;;;;;;;;5075001;28;20377;-81
2024/02/21 14:01:33;;;;;;;3.10;1.73;;;;;;;;;;5077648;28;20402;-81
2024/02/21 14:03:59;;;;;;;2.85;1.65;;;;;;;;;;5076782;28;20379;-81
2024/02/21 14:06:25;;;;;;;2.58;1.90;;;;;;;;;;5077297;28;20948;-80
2024/02/21 14:08:51;;;;;;;3.40;1.50;;;;;;;;;;5059157;28;20393;-80
2024/02/21 14:11:17;;;;;;;2.60;1.80;;;;;;;;;;5074654;28;20411;-80
2024/02/21 14:13:43;;;;;;;3.80;2.50;;;;;;;;;;5077670;28;20854;-80
2024/02/21 14:16:13;;;;;;;3.17;2.00;;;;;;;;;;5077276;28;20533;-81
2024/02/21 14:18:40;;;;;;;2.35;1.98;;;;;;;;;;5079393;28;21053;-81
2024/02/21 14:21:06;;;;;;;2.93;2.03;;;;;;;;;;5078569;28;20928;-81
2024/02/21 14:23:33;;;;;;;2.50;2.03;;;;;;;;;;5078591;28;20383;-81
2024/02/21 14:25:59;;;;;;;2.35;1.88;;;;;;;;;;5077586;28;20429;-81
2024/02/21 14:28:25;;;;;;;3.30;2.00;;;;;;;;;;5078406;28;20368;-81
2024/02/21 14:30:53;;;;;;;2.13;1.70;;;;;;;;;;5066036;28;20778;-81
2024/02/21 14:33:19;;;;;;;1.80;1.35;;;;;;;;;;5056840;28;20378;-81
2024/02/21 14:35:45;;;;;;;2.92;2.10;;;;;;;;;;5062595;28;20861;-81
2024/02/21 14:38:11;;;;;;;2.57;1.57;;;;;;;;;;5071431;28;20392;-81
2024/02/21 14:40:37;;;;;;;2.40;1.60;;;;;;;;;;5068586;28;20383;-82